sensor_id;sensor_type;location;lat;lon;timestamp;P1;durP1;ratioP1;P2;durP2;ratioP2
1320;SDS011;653;51.480;11.992;2024-02-04T00:02:10;9.70;;;6.73;;
1320;SDS011;653;51.480;11.992;2024-02-04T00:04:40;11.80;;;7.70;;
1320;SDS011;653;51.480;11.992;2024-02-04T00:07:10;10.20;;;8.13;;
1320;SDS011;653;51.480;11.992;2024-02-04T00:09:38;9.97;;;7.30;;
1320;SDS011;653;51.480;11.992;2024-02-04T00:12:06;10.40;;;7.83;;
1320;SDS011;653;51.480;11.992;2024-02-04T00:14:36;13.03;;;7.17;;
1320;SDS011;653;51.480;11.992;2024-02-04T00:17:09;11.77;;;8.47;;
1320;SDS011;653;51.480;11.992;2024-02-04T00:19:35;12.87;;;8.20;;
1320;SDS011;653;51.480;11.992;2024-02-04T00:22:04;12.57;;;8.97;;
1320;SDS011;653;51.480;11.992;2024-02-04T00:24:30;13.93;;;9.60;;
1320;SDS011;653;51.480;11.992;2024-02-04T00:27:00;12.30;;;8.53;;
1320;SDS011;653;51.480;11.992;2024-02-04T00:29:28;12.53;;;9.23;;
1320;SDS011;653;51.480;11.992;2024-02-04T00:31:55;14.40;;;8.60;;
1320;SDS011;653;51.480;11.992;2024-02-04T00:34:23;10.63;;;8.20;;
1320;SDS011;653;51.480;11.992;2024-02-04T00:36:50;12.80;;;8.23;;
1320;SDS011;653;51.480;11.992;2024-02-04T00:39:18;12.13;;;7.80;;
1320;SDS011;653;51.480;11.992;2024-02-04T00:41:45;10.80;;;8.43;;
1320;SDS011;653;51.480;11.992;2024-02-04T00:44:13;12.80;;;8.07;;
1320;SDS011;653;51.480;11.992;2024-02-04T00:46:41;9.53;;;8.37;;
1320;SDS011;653;51.480;11.992;2024-02-04T00:49:16;11.20;;;8.20;;
1320;SDS011;653;51.480;11.992;2024-02-04T00:51:51;12.10;;;9.00;;
1320;SDS011;653;51.480;11.992;2024-02-04T00:54:21;10.50;;;7.10;;
1320;SDS011;653;51.480;11.992;2024-02-04T00:56:48;9.93;;;7.40;;
1320;SDS011;653;51.480;11.992;2024-02-04T00:59:15;8.93;;;7.00;;
1320;SDS011;653;51.480;11.992;2024-02-04T01:01:43;8.17;;;6.43;;
1320;SDS011;653;51.480;11.992;2024-02-04T01:04:16;12.50;;;7.20;;
1320;SDS011;653;51.480;11.992;2024-02-04T01:06:43;10.63;;;6.53;;
1320;SDS011;653;51.480;11.992;2024-02-04T01:09:12;10.93;;;7.30;;
1320;SDS011;653;51.480;11.992;2024-02-04T01:11:41;8.30;;;5.53;;
1320;SDS011;653;51.480;11.992;2024-02-04T01:14:09;12.20;;;7.30;;
1320;SDS011;653;51.480;11.992;2024-02-04T01:16:41;9.03;;;6.93;;
1320;SDS011;653;51.480;11.992;2024-02-04T01:19:11;8.17;;;7.00;;
1320;SDS011;653;51.480;11.992;2024-02-04T01:21:40;7.90;;;6.40;;
1320;SDS011;653;51.480;11.992;2024-02-04T01:24:08;9.63;;;7.10;;
1320;SDS011;653;51.480;11.992;2024-02-04T01:26:45;11.43;;;8.07;;
1320;SDS011;653;51.480;11.992;2024-02-04T01:29:17;12.20;;;9.27;;
1320;SDS011;653;51.480;11.992;2024-02-04T01:31:45;11.53;;;8.37;;
1320;SDS011;653;51.480;11.992;2024-02-04T01:34:13;11.57;;;7.67;;
1320;SDS011;653;51.480;11.992;2024-02-04T01:36:39;12.07;;;8.47;;
1320;SDS011;653;51.480;11.992;2024-02-04T01:39:07;15.83;;;9.07;;
1320;SDS011;653;51.480;11.992;2024-02-04T01:41:37;11.97;;;8.93;;
1320;SDS011;653;51.480;11.992;2024-02-04T01:44:09;13.13;;;9.10;;
1320;SDS011;653;51.480;11.992;2024-02-04T01:46:36;12.33;;;8.60;;
1320;SDS011;653;51.480;11.992;2024-02-04T01:49:02;13.23;;;8.20;;
1320;SDS011;653;51.480;11.992;2024-02-04T01:51:30;11.63;;;7.37;;
1320;SDS011;653;51.480;11.992;2024-02-04T01:53:58;13.90;;;8.40;;
1320;SDS011;653;51.480;11.992;2024-02-04T01:56:28;14.97;;;9.50;;
1320;SDS011;653;51.480;11.992;2024-02-04T01:58:57;13.30;;;8.53;;
1320;SDS011;653;51.480;11.992;2024-02-04T02:01:26;14.33;;;8.77;;
1320;SDS011;653;51.480;11.992;2024-02-04T02:03:53;14.73;;;10.30;;
1320;SDS011;653;51.480;11.992;2024-02-04T02:06:20;15.63;;;9.90;;
1320;SDS011;653;51.480;11.992;2024-02-04T02:08:47;14.67;;;9.10;;
1320;SDS011;653;51.480;11.992;2024-02-04T02:11:18;16.30;;;9.63;;
1320;SDS011;653;51.480;11.992;2024-02-04T02:13:47;17.23;;;10.10;;
1320;SDS011;653;51.480;11.992;2024-02-04T02:16:17;16.43;;;9.37;;
1320;SDS011;653;51.480;11.992;2024-02-04T02:18:52;14.10;;;10.17;;
1320;SDS011;653;51.480;11.992;2024-02-04T02:21:26;17.83;;;11.47;;
1320;SDS011;653;51.480;11.992;2024-02-04T02:24:01;13.60;;;9.07;;
1320;SDS011;653;51.480;11.992;2024-02-04T02:26:34;17.00;;;11.80;;
1320;SDS011;653;51.480;11.992;2024-02-04T02:29:03;15.40;;;9.93;;
1320;SDS011;653;51.480;11.992;2024-02-04T02:31:30;18.00;;;10.67;;
1320;SDS011;653;51.480;11.992;2024-02-04T02:33:58;15.13;;;10.90;;
1320;SDS011;653;51.480;11.992;2024-02-04T02:36:26;13.40;;;9.43;;
1320;SDS011;653;51.480;11.992;2024-02-04T02:38:58;17.23;;;11.23;;
1320;SDS011;653;51.480;11.992;2024-02-04T02:41:27;18.70;;;10.83;;
1320;SDS011;653;51.480;11.992;2024-02-04T02:43:59;19.00;;;10.80;;
1320;SDS011;653;51.480;11.992;2024-02-04T02:46:28;18.40;;;10.70;;
1320;SDS011;653;51.480;11.992;2024-02-04T02:48:55;15.00;;;9.70;;
1320;SDS011;653;51.480;11.992;2024-02-04T02:51:25;16.00;;;10.50;;
1320;SDS011;653;51.480;11.992;2024-02-04T02:53:53;16.03;;;10.00;;
1320;SDS011;653;51.480;11.992;2024-02-04T02:56:21;17.00;;;10.03;;
1320;SDS011;653;51.480;11.992;2024-02-04T02:58:49;14.97;;;9.53;;
1320;SDS011;653;51.480;11.992;2024-02-04T03:01:17;15.60;;;9.30;;
1320;SDS011;653;51.480;11.992;2024-02-04T03:03:44;17.37;;;10.23;;
1320;SDS011;653;51.480;11.992;2024-02-04T03:06:12;13.17;;;8.77;;
1320;SDS011;653;51.480;11.992;2024-02-04T03:08:39;11.87;;;8.20;;
1320;SDS011;653;51.480;11.992;2024-02-04T03:11:09;12.43;;;7.97;;
1320;SDS011;653;51.480;11.992;2024-02-04T03:13:38;14.27;;;8.73;;
1320;SDS011;653;51.480;11.992;2024-02-04T03:16:09;14.60;;;7.60;;
1320;SDS011;653;51.480;11.992;2024-02-04T03:18:45;11.17;;;7.53;;
1320;SDS011;653;51.480;11.992;2024-02-04T03:21:13;10.17;;;7.00;;
1320;SDS011;653;51.480;11.992;2024-02-04T03:23:43;14.03;;;7.27;;
1320;SDS011;653;51.480;11.992;2024-02-04T03:26:16;12.53;;;6.90;;
1320;SDS011;653;51.480;11.992;2024-02-04T03:28:45;13.00;;;7.33;;
1320;SDS011;653;51.480;11.992;2024-02-04T03:31:19;10.30;;;7.20;;
1320;SDS011;653;51.480;11.992;2024-02-04T03:33:54;12.00;;;7.90;;
1320;SDS011;653;51.480;11.992;2024-02-04T03:36:22;11.13;;;7.43;;
1320;SDS011;653;51.480;11.992;2024-02-04T03:38:54;11.57;;;7.47;;
1320;SDS011;653;51.480;11.992;2024-02-04T03:41:22;11.93;;;6.33;;
1320;SDS011;653;51.480;11.992;2024-02-04T03:43:50;14.03;;;7.93;;
1320;SDS011;653;51.480;11.992;2024-02-04T03:46:17;10.90;;;7.40;;
1320;SDS011;653;51.480;11.992;2024-02-04T03:48:45;9.20;;;5.80;;
1320;SDS011;653;51.480;11.992;2024-02-04T03:51:16;10.07;;;6.80;;
1320;SDS011;653;51.480;11.992;2024-02-04T03:53:44;9.00;;;6.77;;
1320;SDS011;653;51.480;11.992;2024-02-04T03:56:11;9.07;;;6.47;;
1320;SDS011;653;51.480;11.992;2024-02-04T03:58:39;9.97;;;6.83;;
1320;SDS011;653;51.480;11.992;2024-02-04T04:01:09;9.70;;;6.37;;
1320;SDS011;653;51.480;11.992;2024-02-04T04:03:35;9.13;;;6.50;;
1320;SDS011;653;51.480;11.992;2024-02-04T04:06:03;8.70;;;5.90;;
1320;SDS011;653;51.480;11.992;2024-02-04T04:08:32;9.60;;;6.03;;
1320;SDS011;653;51.480;11.992;2024-02-04T04:11:02;8.93;;;6.03;;
1320;SDS011;653;51.480;11.992;2024-02-04T04:13:33;9.73;;;6.07;;
1320;SDS011;653;51.480;11.992;2024-02-04T04:16:05;10.63;;;5.67;;
1320;SDS011;653;51.480;11.992;2024-02-04T04:18:38;10.93;;;5.30;;
1320;SDS011;653;51.480;11.992;2024-02-04T04:21:05;10.80;;;5.73;;
1320;SDS011;653;51.480;11.992;2024-02-04T04:23:34;9.10;;;5.50;;
1320;SDS011;653;51.480;11.992;2024-02-04T04:26:05;8.30;;;5.10;;
1320;SDS011;653;51.480;11.992;2024-02-04T04:28:31;10.30;;;6.43;;
1320;SDS011;653;51.480;11.992;2024-02-04T04:31:02;7.50;;;5.50;;
1320;SDS011;653;51.480;11.992;2024-02-04T04:33:39;7.97;;;5.23;;
1320;SDS011;653;51.480;11.992;2024-02-04T04:36:05;8.97;;;5.60;;
1320;SDS011;653;51.480;11.992;2024-02-04T04:38:32;8.53;;;5.80;;
1320;SDS011;653;51.480;11.992;2024-02-04T04:41:01;11.53;;;7.07;;
1320;SDS011;653;51.480;11.992;2024-02-04T04:43:29;8.93;;;6.57;;
1320;SDS011;653;51.480;11.992;2024-02-04T04:45:57;10.47;;;7.20;;
1320;SDS011;653;51.480;11.992;2024-02-04T04:48:23;12.30;;;7.03;;
1320;SDS011;653;51.480;11.992;2024-02-04T04:50:50;9.47;;;6.53;;
1320;SDS011;653;51.480;11.992;2024-02-04T04:53:18;12.27;;;8.57;;
1320;SDS011;653;51.480;11.992;2024-02-04T04:55:47;9.73;;;6.80;;
1320;SDS011;653;51.480;11.992;2024-02-04T04:58:16;13.90;;;7.50;;
1320;SDS011;653;51.480;11.992;2024-02-04T05:00:46;11.07;;;7.10;;
1320;SDS011;653;51.480;11.992;2024-02-04T05:03:17;13.07;;;7.60;;
1320;SDS011;653;51.480;11.992;2024-02-04T05:05:43;9.40;;;5.97;;
1320;SDS011;653;51.480;11.992;2024-02-04T05:08:11;10.80;;;6.73;;
1320;SDS011;653;51.480;11.992;2024-02-04T05:10:39;9.17;;;7.20;;
1320;SDS011;653;51.480;11.992;2024-02-04T05:13:06;17.27;;;7.60;;
1320;SDS011;653;51.480;11.992;2024-02-04T05:15:38;15.03;;;7.73;;
1320;SDS011;653;51.480;11.992;2024-02-04T05:18:05;12.67;;;7.20;;
1320;SDS011;653;51.480;11.992;2024-02-04T05:20:32;10.87;;;6.80;;
1320;SDS011;653;51.480;11.992;2024-02-04T05:22:58;11.10;;;7.03;;
1320;SDS011;653;51.480;11.992;2024-02-04T05:25:28;12.87;;;8.13;;
1320;SDS011;653;51.480;11.992;2024-02-04T05:27:57;13.47;;;6.67;;
1320;SDS011;653;51.480;11.992;2024-02-04T05:30:26;11.90;;;7.73;;
1320;SDS011;653;51.480;11.992;2024-02-04T05:32:54;11.40;;;8.07;;
1320;SDS011;653;51.480;11.992;2024-02-04T05:35:24;12.93;;;8.23;;
1320;SDS011;653;51.480;11.992;2024-02-04T05:37:54;13.40;;;7.00;;
1320;SDS011;653;51.480;11.992;2024-02-04T05:40:23;10.60;;;7.13;;
1320;SDS011;653;51.480;11.992;2024-02-04T05:42:53;11.33;;;6.93;;
1320;SDS011;653;51.480;11.992;2024-02-04T05:45:20;9.63;;;6.00;;
1320;SDS011;653;51.480;11.992;2024-02-04T05:47:48;9.30;;;5.40;;
1320;SDS011;653;51.480;11.992;2024-02-04T05:50:16;8.70;;;6.47;;
1320;SDS011;653;51.480;11.992;2024-02-04T05:52:44;12.07;;;7.33;;
1320;SDS011;653;51.480;11.992;2024-02-04T05:55:10;8.77;;;5.33;;
1320;SDS011;653;51.480;11.992;2024-02-04T05:57:38;11.70;;;6.30;;
1320;SDS011;653;51.480;11.992;2024-02-04T06:00:06;10.83;;;6.63;;
1320;SDS011;653;51.480;11.992;2024-02-04T06:02:35;10.43;;;7.33;;
1320;SDS011;653;51.480;11.992;2024-02-04T06:05:03;10.40;;;7.07;;
1320;SDS011;653;51.480;11.992;2024-02-04T06:07:32;9.27;;;5.90;;
1320;SDS011;653;51.480;11.992;2024-02-04T06:09:59;12.13;;;6.93;;
1320;SDS011;653;51.480;11.992;2024-02-04T06:12:29;10.53;;;6.90;;
1320;SDS011;653;51.480;11.992;2024-02-04T06:14:57;14.43;;;8.07;;
1320;SDS011;653;51.480;11.992;2024-02-04T06:17:24;8.90;;;6.70;;
1320;SDS011;653;51.480;11.992;2024-02-04T06:19:51;9.37;;;6.80;;
1320;SDS011;653;51.480;11.992;2024-02-04T06:22:23;12.03;;;6.27;;
1320;SDS011;653;51.480;11.992;2024-02-04T06:24:52;7.97;;;5.90;;
1320;SDS011;653;51.480;11.992;2024-02-04T06:27:19;9.53;;;5.87;;
1320;SDS011;653;51.480;11.992;2024-02-04T06:29:46;9.00;;;5.30;;
1320;SDS011;653;51.480;11.992;2024-02-04T06:32:14;6.57;;;5.17;;
1320;SDS011;653;51.480;11.992;2024-02-04T06:34:40;8.10;;;4.27;;
1320;SDS011;653;51.480;11.992;2024-02-04T06:37:15;6.07;;;4.17;;
1320;SDS011;653;51.480;11.992;2024-02-04T06:39:43;5.30;;;4.30;;
1320;SDS011;653;51.480;11.992;2024-02-04T06:42:16;5.10;;;3.87;;
1320;SDS011;653;51.480;11.992;2024-02-04T06:44:44;4.40;;;3.20;;
1320;SDS011;653;51.480;11.992;2024-02-04T06:47:10;4.10;;;3.00;;
1320;SDS011;653;51.480;11.992;2024-02-04T06:49:43;3.60;;;3.27;;
1320;SDS011;653;51.480;11.992;2024-02-04T06:52:13;6.23;;;3.73;;
1320;SDS011;653;51.480;11.992;2024-02-04T06:54:45;5.53;;;4.03;;
1320;SDS011;653;51.480;11.992;2024-02-04T06:57:11;3.13;;;2.73;;
1320;SDS011;653;51.480;11.992;2024-02-04T06:59:43;4.60;;;3.80;;
1320;SDS011;653;51.480;11.992;2024-02-04T07:02:10;5.13;;;3.27;;
1320;SDS011;653;51.480;11.992;2024-02-04T07:04:38;4.87;;;3.03;;
1320;SDS011;653;51.480;11.992;2024-02-04T07:07:13;3.83;;;2.67;;
1320;SDS011;653;51.480;11.992;2024-02-04T07:09:39;4.43;;;3.70;;
1320;SDS011;653;51.480;11.992;2024-02-04T07:12:10;5.23;;;2.90;;
1320;SDS011;653;51.480;11.992;2024-02-04T07:14:39;3.47;;;2.60;;
1320;SDS011;653;51.480;11.992;2024-02-04T07:17:08;3.10;;;2.50;;
1320;SDS011;653;51.480;11.992;2024-02-04T07:19:38;3.97;;;3.60;;
1320;SDS011;653;51.480;11.992;2024-02-04T07:22:05;3.70;;;3.27;;
1320;SDS011;653;51.480;11.992;2024-02-04T07:24:34;3.73;;;2.97;;
1320;SDS011;653;51.480;11.992;2024-02-04T07:27:03;3.20;;;2.63;;
1320;SDS011;653;51.480;11.992;2024-02-04T07:29:33;4.40;;;3.00;;
1320;SDS011;653;51.480;11.992;2024-02-04T07:32:01;4.30;;;3.10;;
1320;SDS011;653;51.480;11.992;2024-02-04T07:34:31;4.07;;;2.90;;
1320;SDS011;653;51.480;11.992;2024-02-04T07:36:59;4.07;;;2.90;;
1320;SDS011;653;51.480;11.992;2024-02-04T07:39:29;3.97;;;3.00;;
1320;SDS011;653;51.480;11.992;2024-02-04T07:41:57;4.40;;;2.73;;
1320;SDS011;653;51.480;11.992;2024-02-04T07:44:27;4.63;;;3.30;;
1320;SDS011;653;51.480;11.992;2024-02-04T07:46:56;4.17;;;3.73;;
1320;SDS011;653;51.480;11.992;2024-02-04T07:49:22;4.33;;;2.70;;
1320;SDS011;653;51.480;11.992;2024-02-04T07:51:52;3.20;;;2.83;;
1320;SDS011;653;51.480;11.992;2024-02-04T07:54:19;4.03;;;3.03;;
1320;SDS011;653;51.480;11.992;2024-02-04T07:56:45;2.80;;;2.30;;
1320;SDS011;653;51.480;11.992;2024-02-04T07:59:13;3.73;;;2.30;;
1320;SDS011;653;51.480;11.992;2024-02-04T08:01:40;2.97;;;2.67;;
1320;SDS011;653;51.480;11.992;2024-02-04T08:04:07;4.07;;;3.27;;
1320;SDS011;653;51.480;11.992;2024-02-04T08:06:43;2.93;;;2.07;;
1320;SDS011;653;51.480;11.992;2024-02-04T08:09:13;4.53;;;3.10;;
1320;SDS011;653;51.480;11.992;2024-02-04T08:11:44;3.47;;;2.50;;
1320;SDS011;653;51.480;11.992;2024-02-04T08:14:10;2.90;;;2.40;;
1320;SDS011;653;51.480;11.992;2024-02-04T08:16:43;2.50;;;2.03;;
1320;SDS011;653;51.480;11.992;2024-02-04T08:19:12;2.10;;;1.90;;
1320;SDS011;653;51.480;11.992;2024-02-04T08:21:42;2.40;;;2.00;;
1320;SDS011;653;51.480;11.992;2024-02-04T08:24:14;2.03;;;1.60;;
1320;SDS011;653;51.480;11.992;2024-02-04T08:26:40;2.90;;;2.40;;
1320;SDS011;653;51.480;11.992;2024-02-04T08:29:10;1.87;;;1.67;;
1320;SDS011;653;51.480;11.992;2024-02-04T08:31:38;4.10;;;2.53;;
1320;SDS011;653;51.480;11.992;2024-02-04T08:34:14;2.37;;;2.17;;
1320;SDS011;653;51.480;11.992;2024-02-04T08:36:53;3.93;;;2.30;;
1320;SDS011;653;51.480;11.992;2024-02-04T08:39:21;3.20;;;2.10;;
1320;SDS011;653;51.480;11.992;2024-02-04T08:41:57;2.53;;;1.97;;
1320;SDS011;653;51.480;11.992;2024-02-04T08:44:28;2.83;;;2.43;;
1320;SDS011;653;51.480;11.992;2024-02-04T08:46:54;3.70;;;2.30;;
1320;SDS011;653;51.480;11.992;2024-02-04T08:49:21;2.60;;;2.30;;
1320;SDS011;653;51.480;11.992;2024-02-04T08:51:49;2.30;;;2.10;;
1320;SDS011;653;51.480;11.992;2024-02-04T08:54:15;2.40;;;1.97;;
1320;SDS011;653;51.480;11.992;2024-02-04T08:56:45;2.50;;;2.27;;
1320;SDS011;653;51.480;11.992;2024-02-04T08:59:12;2.80;;;2.30;;
1320;SDS011;653;51.480;11.992;2024-02-04T09:01:40;2.90;;;2.27;;
1320;SDS011;653;51.480;11.992;2024-02-04T09:04:10;4.90;;;2.80;;
1320;SDS011;653;51.480;11.992;2024-02-04T09:06:38;2.50;;;2.20;;
1320;SDS011;653;51.480;11.992;2024-02-04T09:09:07;3.33;;;2.40;;
1320;SDS011;653;51.480;11.992;2024-02-04T09:11:34;3.27;;;2.50;;
1320;SDS011;653;51.480;11.992;2024-02-04T09:14:06;3.00;;;2.70;;
1320;SDS011;653;51.480;11.992;2024-02-04T09:16:37;2.77;;;2.57;;
1320;SDS011;653;51.480;11.992;2024-02-04T09:19:05;3.40;;;2.93;;
1320;SDS011;653;51.480;11.992;2024-02-04T09:21:33;2.77;;;2.33;;
1320;SDS011;653;51.480;11.992;2024-02-04T09:24:00;3.50;;;2.37;;
1320;SDS011;653;51.480;11.992;2024-02-04T09:26:27;3.17;;;2.43;;
1320;SDS011;653;51.480;11.992;2024-02-04T09:28:56;2.73;;;2.53;;
1320;SDS011;653;51.480;11.992;2024-02-04T09:31:23;3.23;;;2.83;;
1320;SDS011;653;51.480;11.992;2024-02-04T09:33:54;3.40;;;2.60;;
1320;SDS011;653;51.480;11.992;2024-02-04T09:36:21;3.60;;;2.63;;
1320;SDS011;653;51.480;11.992;2024-02-04T09:38:49;3.27;;;2.97;;
1320;SDS011;653;51.480;11.992;2024-02-04T09:41:16;3.27;;;2.50;;
1320;SDS011;653;51.480;11.992;2024-02-04T09:43:43;5.33;;;3.57;;
1320;SDS011;653;51.480;11.992;2024-02-04T09:46:10;4.40;;;3.00;;
1320;SDS011;653;51.480;11.992;2024-02-04T09:48:41;4.63;;;3.13;;
1320;SDS011;653;51.480;11.992;2024-02-04T09:51:07;4.23;;;3.10;;
1320;SDS011;653;51.480;11.992;2024-02-04T09:53:35;4.07;;;3.60;;
1320;SDS011;653;51.480;11.992;2024-02-04T09:56:04;2.50;;;2.27;;
1320;SDS011;653;51.480;11.992;2024-02-04T09:58:33;4.33;;;3.07;;
1320;SDS011;653;51.480;11.992;2024-02-04T10:01:01;3.67;;;3.00;;
1320;SDS011;653;51.480;11.992;2024-02-04T10:03:29;4.00;;;3.33;;
1320;SDS011;653;51.480;11.992;2024-02-04T10:06:01;3.57;;;3.23;;
1320;SDS011;653;51.480;11.992;2024-02-04T10:08:30;3.50;;;2.90;;
1320;SDS011;653;51.480;11.992;2024-02-04T10:10:58;3.53;;;3.10;;
1320;SDS011;653;51.480;11.992;2024-02-04T10:13:24;4.23;;;3.10;;
1320;SDS011;653;51.480;11.992;2024-02-04T10:15:52;4.17;;;3.33;;
1320;SDS011;653;51.480;11.992;2024-02-04T10:18:21;4.87;;;3.53;;
1320;SDS011;653;51.480;11.992;2024-02-04T10:20:52;3.73;;;3.10;;
1320;SDS011;653;51.480;11.992;2024-02-04T10:23:21;4.73;;;3.80;;
1320;SDS011;653;51.480;11.992;2024-02-04T10:25:56;4.83;;;3.10;;
1320;SDS011;653;51.480;11.992;2024-02-04T10:28:23;4.63;;;3.67;;
1320;SDS011;653;51.480;11.992;2024-02-04T10:30:49;3.20;;;2.90;;
1320;SDS011;653;51.480;11.992;2024-02-04T10:33:18;2.90;;;2.37;;
1320;SDS011;653;51.480;11.992;2024-02-04T10:35:47;5.27;;;3.10;;
1320;SDS011;653;51.480;11.992;2024-02-04T10:38:15;3.07;;;2.77;;
1320;SDS011;653;51.480;11.992;2024-02-04T10:40:47;3.93;;;3.50;;
1320;SDS011;653;51.480;11.992;2024-02-04T10:43:16;8.47;;;3.93;;
1320;SDS011;653;51.480;11.992;2024-02-04T10:45:45;5.60;;;3.77;;
1320;SDS011;653;51.480;11.992;2024-02-04T10:48:14;4.37;;;3.33;;
1320;SDS011;653;51.480;11.992;2024-02-04T10:50:43;3.90;;;3.13;;
1320;SDS011;653;51.480;11.992;2024-02-04T10:53:11;5.07;;;4.00;;
1320;SDS011;653;51.480;11.992;2024-02-04T10:55:43;4.70;;;3.53;;
1320;SDS011;653;51.480;11.992;2024-02-04T10:58:13;5.40;;;4.10;;
1320;SDS011;653;51.480;11.992;2024-02-04T11:00:47;4.47;;;4.03;;
1320;SDS011;653;51.480;11.992;2024-02-04T11:03:21;6.23;;;4.80;;
1320;SDS011;653;51.480;11.992;2024-02-04T11:05:56;6.20;;;4.97;;
1320;SDS011;653;51.480;11.992;2024-02-04T11:08:24;5.33;;;4.77;;
1320;SDS011;653;51.480;11.992;2024-02-04T11:10:53;5.50;;;4.30;;
1320;SDS011;653;51.480;11.992;2024-02-04T11:13:24;6.60;;;5.10;;
1320;SDS011;653;51.480;11.992;2024-02-04T11:15:57;8.50;;;5.07;;
1320;SDS011;653;51.480;11.992;2024-02-04T11:18:30;8.23;;;4.97;;
1320;SDS011;653;51.480;11.992;2024-02-04T11:21:04;5.80;;;4.20;;
1320;SDS011;653;51.480;11.992;2024-02-04T11:23:42;5.37;;;3.80;;
1320;SDS011;653;51.480;11.992;2024-02-04T11:26:16;5.10;;;3.83;;
1320;SDS011;653;51.480;11.992;2024-02-04T11:28:52;5.03;;;4.10;;
1320;SDS011;653;51.480;11.992;2024-02-04T11:31:19;5.30;;;3.63;;
1320;SDS011;653;51.480;11.992;2024-02-04T11:33:50;4.43;;;3.67;;
1320;SDS011;653;51.480;11.992;2024-02-04T11:36:23;4.60;;;3.60;;
1320;SDS011;653;51.480;11.992;2024-02-04T11:38:51;5.90;;;3.93;;
1320;SDS011;653;51.480;11.992;2024-02-04T11:41:22;4.10;;;3.43;;
1320;SDS011;653;51.480;11.992;2024-02-04T11:44:00;3.17;;;2.80;;
1320;SDS011;653;51.480;11.992;2024-02-04T11:46:29;4.63;;;3.63;;
1320;SDS011;653;51.480;11.992;2024-02-04T11:48:59;5.03;;;3.90;;
1320;SDS011;653;51.480;11.992;2024-02-04T11:51:26;4.93;;;3.80;;
1320;SDS011;653;51.480;11.992;2024-02-04T11:53:54;6.57;;;4.37;;
1320;SDS011;653;51.480;11.992;2024-02-04T11:56:25;4.50;;;4.10;;
1320;SDS011;653;51.480;11.992;2024-02-04T11:59:00;5.40;;;4.60;;
1320;SDS011;653;51.480;11.992;2024-02-04T12:01:30;5.13;;;4.63;;
1320;SDS011;653;51.480;11.992;2024-02-04T12:04:04;6.23;;;5.50;;
1320;SDS011;653;51.480;11.992;2024-02-04T12:06:41;6.73;;;4.87;;
1320;SDS011;653;51.480;11.992;2024-02-04T12:09:12;5.17;;;4.67;;
1320;SDS011;653;51.480;11.992;2024-02-04T12:11:42;4.90;;;4.10;;
1320;SDS011;653;51.480;11.992;2024-02-04T12:14:15;6.23;;;3.57;;
1320;SDS011;653;51.480;11.992;2024-02-04T12:16:54;6.60;;;3.87;;
1320;SDS011;653;51.480;11.992;2024-02-04T12:19:23;4.30;;;3.40;;
1320;SDS011;653;51.480;11.992;2024-02-04T12:21:52;4.60;;;3.23;;
1320;SDS011;653;51.480;11.992;2024-02-04T12:24:22;4.33;;;2.53;;
1320;SDS011;653;51.480;11.992;2024-02-04T12:26:50;3.13;;;2.53;;
1320;SDS011;653;51.480;11.992;2024-02-04T12:29:20;2.27;;;1.97;;
1320;SDS011;653;51.480;11.992;2024-02-04T12:31:57;3.57;;;1.80;;
1320;SDS011;653;51.480;11.992;2024-02-04T12:34:36;3.97;;;1.67;;
1320;SDS011;653;51.480;11.992;2024-02-04T12:37:05;2.63;;;2.07;;
1320;SDS011;653;51.480;11.992;2024-02-04T12:39:32;2.30;;;2.10;;
1320;SDS011;653;51.480;11.992;2024-02-04T12:42:02;2.80;;;2.53;;
1320;SDS011;653;51.480;11.992;2024-02-04T12:44:31;2.37;;;2.17;;
1320;SDS011;653;51.480;11.992;2024-02-04T12:46:57;3.40;;;2.70;;
1320;SDS011;653;51.480;11.992;2024-02-04T12:49:35;2.50;;;2.30;;
1320;SDS011;653;51.480;11.992;2024-02-04T12:52:05;3.30;;;2.47;;
1320;SDS011;653;51.480;11.992;2024-02-04T12:54:40;2.80;;;2.07;;
1320;SDS011;653;51.480;11.992;2024-02-04T12:57:10;2.10;;;1.80;;
1320;SDS011;653;51.480;11.992;2024-02-04T12:59:45;2.80;;;2.27;;
1320;SDS011;653;51.480;11.992;2024-02-04T13:02:13;4.00;;;2.43;;
1320;SDS011;653;51.480;11.992;2024-02-04T13:04:40;2.70;;;2.50;;
1320;SDS011;653;51.480;11.992;2024-02-04T13:07:12;4.93;;;2.30;;
1320;SDS011;653;51.480;11.992;2024-02-04T13:09:43;2.90;;;2.00;;
1320;SDS011;653;51.480;11.992;2024-02-04T13:12:14;2.97;;;2.50;;
1320;SDS011;653;51.480;11.992;2024-02-04T13:14:49;5.90;;;3.33;;
1320;SDS011;653;51.480;11.992;2024-02-04T13:17:23;3.90;;;3.10;;
1320;SDS011;653;51.480;11.992;2024-02-04T13:19:49;5.60;;;3.07;;
1320;SDS011;653;51.480;11.992;2024-02-04T13:22:17;5.00;;;3.20;;
1320;SDS011;653;51.480;11.992;2024-02-04T13:24:47;3.80;;;2.67;;
1320;SDS011;653;51.480;11.992;2024-02-04T13:27:17;2.87;;;2.63;;
1320;SDS011;653;51.480;11.992;2024-02-04T13:29:44;3.17;;;2.40;;
1320;SDS011;653;51.480;11.992;2024-02-04T13:32:16;2.53;;;2.30;;
1320;SDS011;653;51.480;11.992;2024-02-04T13:34:44;2.60;;;2.40;;
1320;SDS011;653;51.480;11.992;2024-02-04T13:37:15;3.00;;;2.03;;
1320;SDS011;653;51.480;11.992;2024-02-04T13:39:43;3.60;;;2.80;;
1320;SDS011;653;51.480;11.992;2024-02-04T13:42:13;3.73;;;2.30;;
1320;SDS011;653;51.480;11.992;2024-02-04T13:44:39;3.33;;;2.23;;
1320;SDS011;653;51.480;11.992;2024-02-04T13:47:06;3.53;;;2.63;;
1320;SDS011;653;51.480;11.992;2024-02-04T13:49:38;2.27;;;2.07;;
1320;SDS011;653;51.480;11.992;2024-02-04T13:52:06;3.13;;;1.67;;
1320;SDS011;653;51.480;11.992;2024-02-04T13:54:32;2.70;;;2.30;;
1320;SDS011;653;51.480;11.992;2024-02-04T13:56:59;4.57;;;2.17;;
1320;SDS011;653;51.480;11.992;2024-02-04T13:59:27;2.70;;;2.40;;
1320;SDS011;653;51.480;11.992;2024-02-04T14:01:57;5.40;;;3.30;;
1320;SDS011;653;51.480;11.992;2024-02-04T14:04:40;2.27;;;1.87;;
1320;SDS011;653;51.480;11.992;2024-02-04T14:07:08;2.60;;;1.90;;
1320;SDS011;653;51.480;11.992;2024-02-04T14:09:35;3.00;;;2.27;;
1320;SDS011;653;51.480;11.992;2024-02-04T14:12:03;3.50;;;2.27;;
1320;SDS011;653;51.480;11.992;2024-02-04T14:14:30;3.83;;;2.60;;
1320;SDS011;653;51.480;11.992;2024-02-04T14:16:58;4.30;;;3.20;;
1320;SDS011;653;51.480;11.992;2024-02-04T14:19:28;2.70;;;2.20;;
1320;SDS011;653;51.480;11.992;2024-02-04T14:22:03;2.23;;;2.03;;
1320;SDS011;653;51.480;11.992;2024-02-04T14:24:32;2.70;;;2.20;;
1320;SDS011;653;51.480;11.992;2024-02-04T14:27:15;2.87;;;2.30;;
1320;SDS011;653;51.480;11.992;2024-02-04T14:29:43;2.20;;;2.00;;
1320;SDS011;653;51.480;11.992;2024-02-04T14:32:14;2.23;;;1.73;;
1320;SDS011;653;51.480;11.992;2024-02-04T14:34:47;2.40;;;2.20;;
1320;SDS011;653;51.480;11.992;2024-02-04T14:37:17;2.87;;;2.40;;
1320;SDS011;653;51.480;11.992;2024-02-04T14:39:45;2.07;;;1.87;;
1320;SDS011;653;51.480;11.992;2024-02-04T14:42:12;3.43;;;1.57;;
1320;SDS011;653;51.480;11.992;2024-02-04T14:44:39;6.20;;;2.10;;
1320;SDS011;653;51.480;11.992;2024-02-04T14:47:07;3.47;;;1.60;;
1320;SDS011;653;51.480;11.992;2024-02-04T14:49:35;3.60;;;2.73;;
1320;SDS011;653;51.480;11.992;2024-02-04T14:52:05;7.23;;;2.13;;
1320;SDS011;653;51.480;11.992;2024-02-04T14:54:36;3.60;;;3.30;;
1320;SDS011;653;51.480;11.992;2024-02-04T14:57:06;3.53;;;2.73;;
1320;SDS011;653;51.480;11.992;2024-02-04T14:59:34;3.10;;;2.57;;
1320;SDS011;653;51.480;11.992;2024-02-04T15:02:05;2.50;;;2.30;;
1320;SDS011;653;51.480;11.992;2024-02-04T15:04:36;3.57;;;2.70;;
1320;SDS011;653;51.480;11.992;2024-02-04T15:07:04;2.57;;;2.37;;
1320;SDS011;653;51.480;11.992;2024-02-04T15:09:31;6.43;;;2.90;;
1320;SDS011;653;51.480;11.992;2024-02-04T15:12:07;2.60;;;2.40;;
1320;SDS011;653;51.480;11.992;2024-02-04T15:14:37;4.80;;;3.13;;
1320;SDS011;653;51.480;11.992;2024-02-04T15:17:11;3.50;;;2.73;;
1320;SDS011;653;51.480;11.992;2024-02-04T15:19:48;3.67;;;2.70;;
1320;SDS011;653;51.480;11.992;2024-02-04T15:22:17;3.57;;;3.27;;
1320;SDS011;653;51.480;11.992;2024-02-04T15:24:59;4.27;;;3.80;;